x

Virginia Beach 64 Nm East Of Virginia Beach, Va (44014) Wave Buoy

11:50 - Mon 26th Jun 2017 All times are EDT. -4 hours from GMT.

  • Sig Wave height 1.6ft
  • Swell Direction
  • Peak Period 8s
  • Average Period 6s
  • Wind
    7mph, 9mph gusts
  • Sea Temp 74°f
  • Luft Temp 74°f
  • Sea Pressure 1017.2mb
  • Virginia Beach 64 Nm East Of Virginia Beach, Va
  • Virginia Beach 64 Nm East Of Virginia Beach, Va

More Historic Weather Station data

Upgrade to MSW Pro to gain access to the past 30 days of data for over 8000 Wavebouys and Weather Stations around the globe.

Join Pro

Comparision Forecast

View Surf forecast
   
Mo 06/26 11:50 1.6ft 8s 6s 7 9 mph 1017.2mb 74f 74f
10:50 1.6ft 8s 6s 4 4 mph 1017.3mb 75f 74f
9:50 1.6ft 8s 6s 4 4 mph 1017.4mb 75f 74f
8:50 1.3ft 8s 6s 4 7 mph 1017.3mb 76f 74f
7:50 1.3ft 8s 5s 7 7 mph 1017.4mb 76f 75f
6:50 1.3ft 8s 5s 4 4 mph 1017.6mb 76f 75f
5:50 1.6ft 8s 5s 2 2 mph 1017.7mb 76f 75f
4:50 1.6ft 8s 5s 2 4 mph 1018.2mb 76f 75f
3:50 1.6ft 8s 4s 4 7 mph 1018.6mb 75f 74f
2:50 2ft 8s 4s 4 7 mph 1019mb 74f 74f
1:50 2ft 8s 4s 7 9 mph 1019.1mb 73f 74f
12:50 2ft 7s 4s 7 9 mph 1019.5mb 73f 74f
11:50 2ft 8s 4s 9 11 mph 1019.3mb 73f 74f
10:50 2ft 8s 4s 13 16 mph 1019.1mb 73f 74f
9:50 2.5ft 8s 4s 13 16 mph 1018.7mb 73f 75f
8:50 2ft 8s 4s 13 18 mph 1018.5mb 73f 75f
7:50 2ft 8s 5s 13 16 mph 1018.2mb 74f 75f
6:50 2ft 6s 6s 13 16 mph 1017.7mb 74f 75f
5:50 2.5ft 8s 6s 9 9 mph 1017.3mb 73f 75f
4:50 2.5ft 7s 6s 9 11 mph 1017mb 74f 74f
3:50 2.5ft 8s 6s 7 9 mph 1016.7mb 74f 74f
2:50 2.5ft 8s 6s 4 4 mph 1016.7mb 74f 73f
1:50 2.5ft 7s 6s 4 4 mph 1016.9mb 74f 74f
12:50 2.5ft 8s 5s 2 2 mph 1017mb 74f 74f
So 06/25 11:50 2.5ft 6s 5s 4 4 mph 1017.3mb 75f 74f
10:50 2.5ft 9s 5s 4 4 mph 1017.4mb 75f 74f
9:50 2.5ft 6s 5s 7 7 mph 1017.1mb 75f 74f
8:50 2.5ft 6s 5s 4 7 mph 1016.8mb 76f 75f
7:50 3ft 6s 5s 2 4 mph 1016.6mb 76f 75f
6:50 3ft 6s 5s 7 7 mph 1016.2mb 76f 75f
5:50 3.5ft 6s 5s 7 7 mph 1015.9mb 76f 75f
4:50 3.5ft 7s 5s 7 7 mph 1016.2mb 75f 75f
3:50 3.5ft 7s 5s 2 4 mph 1016.4mb 75f 75f
2:50 3.5ft 7s 5s 4 4 mph 1016.6mb 74f 74f
1:50 3.5ft 7s 5s 4 7 mph 1016.6mb 74f 74f
12:50 3.5ft 7s 6s 4 7 mph 1017mb 73f 74f
11:50 3.5ft 7s 6s 7 9 mph 1017mb 73f 73f
10:50 3.5ft 7s 6s 9 9 mph 1017.2mb 73f 73f
9:50 3.5ft 7s 6s 7 7 mph 1016.8mb 73f 73f
8:50 4ft 7s 6s 7 9 mph 1016.6mb 72f 73f
7:50 3.5ft 7s 6s 9 9 mph 1016.4mb 72f 73f
6:50 3.5ft 7s 6s 9 11 mph 1015.9mb 72f 73f
5:50 3.5ft 7s 6s 7 9 mph 1015.8mb 72f 73f
4:50 3.5ft 7s 5s 7 9 mph 1015.4mb 72f 72f
3:50 4ft 8s 5s 9 9 mph 1015.2mb 72f 73f
2:50 4ft 7s 5s 2 4 mph 1015.4mb 72f 73f
1:50 4.5ft 7s 5s 7 11 mph 1015.2mb 72f 73f
12:50 4.5ft 7s 5s 13 16 mph 1014.5mb 73f 73f
Sa 06/24 11:50 5ft 7s 5s 13 16 mph 1015.4mb 73f 73f
10:50 4.5ft 7s 6s 11 13 mph 1015.4mb 73f 75f
9:50 4.5ft 7s 5s 9 11 mph 1014.6mb 73f 74f
8:50 4.5ft 7s 6s 11 11 mph 1014.3mb 74f 75f
7:50 4.5ft 8s 5s 11 13 mph 1013.6mb 74f 75f
6:50 5ft 7s 6s 9 9 mph 1013mb 74f 76f
5:50 5ft 8s 6s 9 11 mph 1013.3mb 74f 77f
4:50 5ft 7s 5s 2 4 mph 1013.2mb 74f 76f
3:50 6ft 7s 6s 4 4 mph 1013.5mb 74f 76f
2:50 6ft 7s 6s 2 4 mph 1013.8mb 73f 75f
1:50 6.5ft 8s 6s 2 2 mph 1013.7mb 72f 74f
12:50 6ft 7s 6s 7 7 mph 1013.8mb 71f 74f
11:50 7ft 7s 6s 9 11 mph 1013.4mb 71f 74f
10:50 6.5ft 7s 5s 18 20 mph 1012.3mb 71f 74f
9:50 7.5ft 8s 6s 22 27 mph 1011.3mb 71f 75f
8:50 7.5ft 7s 6s 22 27 mph 1010.3mb 71f 75f
7:50 7.5ft 7s 5s 27 29 mph 1009.5mb 70f 75f
6:50 7ft 7s 5s 25 29 mph 1009.2mb 70f 74f
5:50 6.5ft 7s 5s 25 29 mph 1009.1mb 71f 74f
4:50 5.5ft 7s 5s 22 27 mph 1009.6mb 71f 74f
3:50 7ft 7s 5s 22 27 mph 1010mb 70f 74f
2:50 6ft 7s 5s 27 31 mph 1009.8mb 70f 75f
1:50 6ft 6s 5s 25 27 mph 1010.7mb 71f 74f
12:50 6ft 6s 5s 25 29 mph 1011.1mb 71f 74f
Fr 06/23 11:50 6ft 6s 5s 25 27 mph 1011.7mb 71f 74f
10:50 6ft 6s 5s 25 29 mph 1011.7mb 71f 74f
9:50 5ft 5s 5s 22 27 mph 1011.4mb 72f 74f
8:50 5ft 5s 4s 25 29 mph 1010.7mb 72f 75f
7:50 4.5ft 5s 4s 25 29 mph 1010.6mb 72f 75f
6:50 4.5ft 5s 4s 25 29 mph 1010.8mb 73f 75f
5:50 3.5ft 4s 4s 20 25 mph 1011.5mb 73f 75f
4:50 3.5ft 4s 4s 20 22 mph 1012mb 73f 75f
3:50 3ft 4s 4s 20 22 mph 1012.7mb 73f 75f
2:50 2.5ft 8s 4s 18 20 mph 1013.3mb 73f 75f
1:50 2.5ft 8s 4s 16 18 mph 1013.8mb 73f 75f
12:50 2.5ft 8s 4s 13 16 mph 1014.4mb 73f 74f
11:50 2.5ft 9s 5s 13 13 mph 1015.2mb 72f 74f
10:50 3ft 8s 5s 9 11 mph 1015.9mb 72f 73f
8:50 3ft 8s 5s 9 9 mph 1015.8mb 72f 73f
7:50 3ft 9s 5s 7 9 mph 1015.5mb 72f 73f
6:50 3.5ft 8s 5s 13 18 mph 1015.3mb 72f 74f
5:50 3ft 9s 5s 11 16 mph 1015mb 72f 74f